Time;durP1;ratioP1;P1;durP2;ratioP2;P2;SDS_P1;SDS_P2;PMS_P1;PMS_P2;Temp;Humidity;BMP_temperature;BMP_pressure;BME280_temperature;BME280_humidity;BME280_pressure;Samples;Min_cycle;Max_cycle;Signal;HPM_P1;HPM_P2
2022/05/31 00:01:30;;;;;;;16.83;6.83;;;;;;;;;;10489191;28;20500;-71
2022/05/31 00:06:30;;;;;;;16.40;6.75;;;;;;;;;;10488449;28;20261;-71
2022/05/31 00:11:30;;;;;;;10.73;5.80;;;;;;;;;;10488241;28;20603;-71
2022/05/31 00:16:31;;;;;;;13.98;6.03;;;;;;;;;;10487763;28;20016;-71
2022/05/31 00:21:36;;;;;;;10.82;5.65;;;;;;;;;;10471170;28;20477;-71
2022/05/31 00:26:38;;;;;;;9.88;5.72;;;;;;;;;;10487559;28;20550;-70
2022/05/31 00:31:40;;;;;;;14.05;6.03;;;;;;;;;;10487725;28;20020;-71
2022/05/31 00:36:42;;;;;;;15.38;7.20;;;;;;;;;;10487610;28;20048;-71
2022/05/31 00:41:55;;;;;;;13.10;6.43;;;;;;;;;;10487031;28;20041;-72
2022/05/31 00:47:11;;;;;;;14.98;6.45;;;;;;;;;;10486756;28;20021;-74
2022/05/31 00:52:17;;;;;;;11.55;6.45;;;;;;;;;;10487814;28;20020;-73
2022/05/31 00:57:17;;;;;;;10.80;6.72;;;;;;;;;;10486480;28;20017;-71
2022/05/31 01:02:18;;;;;;;13.35;6.45;;;;;;;;;;10486254;28;20030;-71
2022/05/31 01:07:18;;;;;;;15.73;7.80;;;;;;;;;;10485996;28;20080;-69
2022/05/31 01:12:19;;;;;;;14.32;6.68;;;;;;;;;;10486077;28;20022;-72
2022/05/31 01:17:20;;;;;;;12.45;5.95;;;;;;;;;;10472005;28;20148;-72
2022/05/31 01:22:23;;;;;;;11.15;6.05;;;;;;;;;;10444352;28;20097;-71
2022/05/31 01:27:33;;;;;;;9.82;6.13;;;;;;;;;;10478394;28;20017;-73
2022/05/31 01:32:37;;;;;;;14.10;5.90;;;;;;;;;;10485779;28;20016;-70
2022/05/31 01:37:44;;;;;;;10.65;5.93;;;;;;;;;;10490743;28;20040;-71
2022/05/31 01:42:46;;;;;;;10.10;5.93;;;;;;;;;;10486522;28;20039;-71
2022/05/31 01:47:46;;;;;;;9.95;5.60;;;;;;;;;;10485573;28;20406;-70
2022/05/31 01:52:48;;;;;;;10.20;5.47;;;;;;;;;;10485014;28;20031;-71
2022/05/31 01:57:53;;;;;;;11.40;5.90;;;;;;;;;;10486441;28;20270;-70
2022/05/31 02:02:56;;;;;;;10.43;6.05;;;;;;;;;;10484792;28;20017;-72
2022/05/31 02:07:57;;;;;;;16.88;6.07;;;;;;;;;;10484730;28;20102;-73
2022/05/31 02:12:58;;;;;;;10.57;5.13;;;;;;;;;;10484854;28;20028;-72
2022/05/31 02:17:58;;;;;;;11.68;5.20;;;;;;;;;;10442219;28;20025;-72
2022/05/31 02:22:58;;;;;;;15.88;6.05;;;;;;;;;;10442493;28;20032;-71
2022/05/31 02:27:58;;;;;;;15.95;5.93;;;;;;;;;;10443321;28;20430;-71
2022/05/31 02:32:59;;;;;;;12.02;6.05;;;;;;;;;;10441355;28;20021;-71
2022/05/31 02:37:59;;;;;;;8.90;5.60;;;;;;;;;;10441230;28;20120;-71
2022/05/31 02:43:00;;;;;;;10.63;5.50;;;;;;;;;;10441305;28;20025;-71
2022/05/31 02:48:00;;;;;;;12.10;5.47;;;;;;;;;;10441136;28;20506;-70
2022/05/31 02:53:00;;;;;;;9.50;4.75;;;;;;;;;;10456615;28;20170;-74
2022/05/31 02:58:00;;;;;;;12.80;5.60;;;;;;;;;;10482455;28;20019;-72
2022/05/31 03:03:01;;;;;;;12.57;5.50;;;;;;;;;;10483138;28;20025;-72
2022/05/31 03:08:02;;;;;;;10.85;5.13;;;;;;;;;;10456191;28;20013;-71
2022/05/31 03:13:03;;;;;;;11.38;5.15;;;;;;;;;;10449465;28;20032;-73
2022/05/31 03:18:05;;;;;;;11.95;5.40;;;;;;;;;;10448929;28;20025;-74
2022/05/31 03:23:06;;;;;;;13.07;5.80;;;;;;;;;;10447263;28;20040;-75
2022/05/31 03:28:08;;;;;;;9.45;5.72;;;;;;;;;;10459664;28;20013;-71
2022/05/31 03:33:09;;;;;;;10.43;5.82;;;;;;;;;;10447236;28;20059;-72
2022/05/31 03:38:09;;;;;;;8.00;5.70;;;;;;;;;;10449894;28;20045;-71
2022/05/31 03:43:10;;;;;;;20.42;6.05;;;;;;;;;;10446121;28;20037;-76
2022/05/31 03:48:11;;;;;;;11.55;5.22;;;;;;;;;;10450997;28;20507;-73
2022/05/31 03:53:13;;;;;;;10.65;6.18;;;;;;;;;;10445086;28;20419;-75
2022/05/31 03:58:13;;;;;;;18.02;7.47;;;;;;;;;;10458739;28;20390;-74
2022/05/31 04:03:14;;;;;;;9.85;6.15;;;;;;;;;;10488733;28;20020;-73
2022/05/31 04:08:14;;;;;;;13.30;6.55;;;;;;;;;;10468925;28;20021;-75
2022/05/31 04:13:16;;;;;;;11.38;5.82;;;;;;;;;;10448975;28;20479;-75
2022/05/31 04:18:16;;;;;;;13.75;6.07;;;;;;;;;;10458172;28;20147;-73
2022/05/31 04:28:35;;;;;;;19.20;6.55;;;;;;;;;;10489282;28;20008;-73
2022/05/31 04:33:35;;;;;;;14.32;6.90;;;;;;;;;;10458843;28;20498;-72
2022/05/31 04:38:36;;;;;;;18.27;7.00;;;;;;;;;;10478507;28;20040;-71
2022/05/31 04:43:36;;;;;;;23.02;7.20;;;;;;;;;;10469804;28;20036;-72
2022/05/31 04:48:37;;;;;;;17.65;7.97;;;;;;;;;;10486131;28;20016;-73
2022/05/31 04:53:38;;;;;;;21.90;8.27;;;;;;;;;;10486086;28;20422;-72
2022/05/31 04:58:38;;;;;;;14.00;6.97;;;;;;;;;;10486949;28;20266;-70
2022/05/31 05:03:41;;;;;;;14.20;7.03;;;;;;;;;;10486420;28;20628;-70
2022/05/31 05:08:42;;;;;;;19.42;7.45;;;;;;;;;;10485951;28;20739;-72
2022/05/31 05:13:42;;;;;;;18.60;8.13;;;;;;;;;;10487954;28;20401;-71
2022/05/31 05:18:43;;;;;;;14.57;6.07;;;;;;;;;;10484832;28;20048;-71
2022/05/31 05:23:44;;;;;;;17.50;7.30;;;;;;;;;;10485230;28;20473;-71
2022/05/31 05:34:03;;;;;;;14.02;7.28;;;;;;;;;;10486380;28;20048;-76
2022/05/31 05:39:10;;;;;;;22.52;7.75;;;;;;;;;;10484412;28;20052;-71
2022/05/31 05:44:10;;;;;;;14.02;6.15;;;;;;;;;;10484410;28;20033;-71
2022/05/31 05:49:10;;;;;;;12.47;5.50;;;;;;;;;;10484518;28;20032;-72
2022/05/31 05:54:11;;;;;;;14.67;5.30;;;;;;;;;;10484844;28;20372;-71
2022/05/31 05:59:11;;;;;;;8.32;4.82;;;;;;;;;;10483933;28;20275;-71
2022/05/31 06:04:11;;;;;;;15.37;5.70;;;;;;;;;;10485628;28;20051;-71
2022/05/31 06:09:14;;;;;;;11.85;5.78;;;;;;;;;;10484368;28;20262;-71
2022/05/31 06:14:18;;;;;;;13.02;5.57;;;;;;;;;;10485895;28;20463;-72
2022/05/31 06:19:39;;;;;;;22.98;7.05;;;;;;;;;;10483957;28;20479;-77
2022/05/31 06:24:39;;;;;;;21.83;5.47;;;;;;;;;;10483183;28;20028;-73
2022/05/31 06:29:40;;;;;;;9.93;4.15;;;;;;;;;;10485149;28;20075;-72
2022/05/31 06:34:40;;;;;;;10.45;4.47;;;;;;;;;;10483822;28;20621;-75
2022/05/31 06:39:44;;;;;;;9.27;4.50;;;;;;;;;;10487702;28;20049;-72
2022/05/31 06:44:45;;;;;;;10.35;4.28;;;;;;;;;;10491272;28;20025;-70
2022/05/31 06:49:45;;;;;;;18.80;5.80;;;;;;;;;;10491228;28;20032;-70
2022/05/31 07:00:06;;;;;;;12.35;5.07;;;;;;;;;;10492330;28;20024;-71
2022/05/31 07:05:07;;;;;;;23.45;6.05;;;;;;;;;;10491376;28;20024;-70
2022/05/31 07:10:08;;;;;;;9.75;4.70;;;;;;;;;;10444002;28;20396;-70
2022/05/31 07:15:08;;;;;;;16.27;5.07;;;;;;;;;;10490721;28;20028;-74
2022/05/31 07:20:09;;;;;;;14.13;5.88;;;;;;;;;;10490072;28;20028;-75
2022/05/31 07:25:10;;;;;;;18.20;5.63;;;;;;;;;;10489988;28;20049;-75
2022/05/31 07:30:10;;;;;;;10.40;5.35;;;;;;;;;;10491053;28;20036;-72
2022/05/31 07:35:11;;;;;;;13.90;6.03;;;;;;;;;;10490194;28;20020;-74
2022/05/31 07:40:11;;;;;;;14.40;5.00;;;;;;;;;;10481166;28;20128;-71
2022/05/31 07:45:11;;;;;;;18.95;5.75;;;;;;;;;;10456127;28;20035;-70
2022/05/31 07:50:12;;;;;;;14.53;5.33;;;;;;;;;;10488860;28;20482;-71
2022/05/31 07:55:12;;;;;;;10.02;5.70;;;;;;;;;;10490124;28;20032;-70
2022/05/31 08:00:13;;;;;;;8.85;4.68;;;;;;;;;;10488340;28;20029;-73
2022/05/31 08:05:13;;;;;;;10.70;4.78;;;;;;;;;;10488341;28;20021;-71
2022/05/31 08:10:16;;;;;;;17.05;4.63;;;;;;;;;;10488753;28;20055;-70
2022/05/31 08:20:27;;;;;;;11.27;4.35;;;;;;;;;;10496382;22;20605;-69
2022/05/31 08:25:27;;;;;;;14.48;4.63;;;;;;;;;;10414306;28;20108;-69
2022/05/31 08:30:28;;;;;;;12.43;4.30;;;;;;;;;;10405080;28;20108;-70
2022/05/31 08:35:28;;;;;;;12.30;4.22;;;;;;;;;;10441216;28;20025;-69
2022/05/31 08:40:29;;;;;;;8.80;3.38;;;;;;;;;;10441317;28;20084;-70
2022/05/31 08:45:39;;;;;;;9.05;3.58;;;;;;;;;;10387788;28;20028;-71
2022/05/31 09:01:36;;;;;;;6.43;2.63;;;;;;;;;;10445250;28;20057;-74
2022/05/31 09:06:44;;;;;;;12.73;3.00;;;;;;;;;;10445131;28;20048;-73
2022/05/31 09:12:08;;;;;;;10.55;3.47;;;;;;;;;;10412724;28;20032;-73
2022/05/31 09:17:09;;;;;;;7.90;3.60;;;;;;;;;;10375708;28;20041;-70
2022/05/31 09:22:09;;;;;;;9.20;2.78;;;;;;;;;;10402553;28;20459;-70
2022/05/31 09:27:34;;;;;;;9.23;2.57;;;;;;;;;;10402931;28;20029;-69
2022/05/31 09:32:40;;;;;;;4.70;2.92;;;;;;;;;;10402270;28;20507;-69
2022/05/31 09:37:53;;;;;;;8.52;2.65;;;;;;;;;;10402138;28;20196;-70
2022/05/31 09:43:06;;;;;;;4.75;2.80;;;;;;;;;;10402350;28;20503;-70
2022/05/31 09:48:07;;;;;;;11.35;3.17;;;;;;;;;;10401778;28;20499;-70
2022/05/31 09:57:05;;;;;;;11.37;2.60;;;;;;;;;;10401695;28;20116;-71
2022/05/31 09:58:32;;;;;;;3.72;2.40;;;;;;;;;;10403348;28;20538;-73
2022/05/31 10:03:35;;;;;;;6.88;2.45;;;;;;;;;;10402943;28;20037;-69
2022/05/31 10:08:35;;;;;;;12.73;2.78;;;;;;;;;;10418943;28;20029;-73
2022/05/31 10:13:37;;;;;;;2.90;1.88;;;;;;;;;;10422118;28;20407;-69
2022/05/31 10:18:55;;;;;;;6.07;2.20;;;;;;;;;;10393566;28;20061;-70
2022/05/31 10:23:59;;;;;;;7.20;2.25;;;;;;;;;;10410884;28;20017;-71
2022/05/31 10:29:00;;;;;;;3.88;1.77;;;;;;;;;;10409428;28;20032;-71
2022/05/31 10:34:03;;;;;;;4.22;2.17;;;;;;;;;;10409191;28;20025;-69
2022/05/31 10:39:10;;;;;;;5.57;1.70;;;;;;;;;;10410794;28;20080;-73
2022/05/31 10:44:15;;;;;;;5.35;1.95;;;;;;;;;;10411521;28;20021;-71
2022/05/31 10:49:17;;;;;;;9.20;2.42;;;;;;;;;;10411202;28;20536;-76
2022/05/31 10:54:43;;;;;;;8.77;2.28;;;;;;;;;;10409782;28;20039;-70
2022/05/31 10:59:43;;;;;;;12.57;2.97;;;;;;;;;;10408844;28;20388;-70
2022/05/31 11:04:51;;;;;;;7.28;2.17;;;;;;;;;;10408136;28;20033;-70
2022/05/31 11:15:48;;;;;;;5.38;2.45;;;;;;;;;;10411116;28;20045;-73
2022/05/31 11:20:52;;;;;;;11.98;2.90;;;;;;;;;;10407369;28;20146;-69
2022/05/31 11:25:58;;;;;;;43.72;8.40;;;;;;;;;;10406320;28;20549;-71
2022/05/31 11:31:11;;;;;;;10.25;2.88;;;;;;;;;;10406932;28;20036;-70
2022/05/31 11:36:30;;;;;;;3.72;2.08;;;;;;;;;;10406553;28;20031;-71
2022/05/31 11:41:50;;;;;;;4.28;2.40;;;;;;;;;;10407148;28;20048;-71
2022/05/31 11:47:00;;;;;;;5.68;2.65;;;;;;;;;;10390075;28;20037;-68
2022/05/31 11:52:23;;;;;;;6.05;2.05;;;;;;;;;;10390246;28;20021;-73
2022/05/31 11:57:34;;;;;;;8.88;2.47;;;;;;;;;;10397402;28;20059;-71
2022/05/31 12:02:45;;;;;;;9.40;2.80;;;;;;;;;;10405758;28;20364;-74
2022/05/31 12:07:48;;;;;;;5.20;2.28;;;;;;;;;;10405246;28;20148;-68
2022/05/31 12:12:49;;;;;;;7.82;2.10;;;;;;;;;;10405411;28;20060;-73
2022/05/31 12:17:55;;;;;;;7.18;2.20;;;;;;;;;;10404805;28;20128;-73
2022/05/31 12:23:03;;;;;;;4.68;2.03;;;;;;;;;;10404677;28;20029;-71
2022/05/31 12:28:09;;;;;;;5.10;1.73;;;;;;;;;;10404414;28;20104;-70
2022/05/31 12:33:36;;;;;;;3.08;1.55;;;;;;;;;;10404512;28;20026;-72
2022/05/31 12:38:55;;;;;;;8.30;3.00;;;;;;;;;;10404258;28;20049;-71
2022/05/31 12:43:58;;;;;;;4.65;1.73;;;;;;;;;;10404699;28;20432;-70
2022/05/31 12:49:00;;;;;;;6.82;1.90;;;;;;;;;;10403717;28;20479;-70
2022/05/31 12:54:04;;;;;;;10.07;2.75;;;;;;;;;;10404551;28;20021;-75
2022/05/31 12:59:06;;;;;;;6.15;2.25;;;;;;;;;;10403440;28;20018;-71
2022/05/31 13:04:07;;;;;;;7.35;2.00;;;;;;;;;;10403523;28;20067;-74
2022/05/31 13:09:32;;;;;;;3.22;1.35;;;;;;;;;;10400378;28;20020;-73
2022/05/31 13:19:57;;;;;;;3.92;1.30;;;;;;;;;;10393982;28;20124;-72
2022/05/31 13:25:04;;;;;;;3.92;1.73;;;;;;;;;;10386619;28;20029;-72
2022/05/31 13:30:09;;;;;;;5.22;1.70;;;;;;;;;;10396712;28;20116;-70
2022/05/31 13:35:19;;;;;;;6.95;2.30;;;;;;;;;;10390828;28;20424;-71
2022/05/31 13:40:21;;;;;;;5.20;1.52;;;;;;;;;;10392619;28;20025;-75
2022/05/31 13:45:23;;;;;;;5.38;1.60;;;;;;;;;;10373854;28;20025;-69
2022/05/31 13:50:26;;;;;;;5.53;1.70;;;;;;;;;;10382773;28;20100;-70
2022/05/31 13:55:29;;;;;;;3.20;2.00;;;;;;;;;;10396662;28;20027;-70
2022/05/31 14:00:46;;;;;;;5.50;2.05;;;;;;;;;;10392650;28;20557;-71
2022/05/31 14:05:58;;;;;;;4.13;1.67;;;;;;;;;;10384693;28;20079;-72
2022/05/31 14:10:58;;;;;;;5.85;2.35;;;;;;;;;;10383868;28;20393;-71
2022/05/31 14:16:10;;;;;;;6.27;2.90;;;;;;;;;;10391460;28;20046;-71
2022/05/31 14:21:11;;;;;;;6.05;3.80;;;;;;;;;;10369135;28;20021;-71
2022/05/31 14:26:11;;;;;;;7.43;4.40;;;;;;;;;;10397584;28;20165;-71
2022/05/31 14:31:23;;;;;;;9.32;4.25;;;;;;;;;;10399999;28;20557;-72
2022/05/31 14:36:38;;;;;;;8.48;3.83;;;;;;;;;;10375396;28;20029;-71
2022/05/31 14:41:40;;;;;;;8.57;4.38;;;;;;;;;;10387935;28;20036;-69
2022/05/31 14:46:40;;;;;;;26.08;8.88;;;;;;;;;;10390030;28;20048;-72
2022/05/31 14:51:41;;;;;;;13.38;7.18;;;;;;;;;;10383950;28;20021;-70
2022/05/31 14:56:42;;;;;;;10.15;6.38;;;;;;;;;;10388429;28;20026;-74
2022/05/31 15:01:45;;;;;;;14.57;7.80;;;;;;;;;;10389449;28;20032;-73
2022/05/31 15:06:56;;;;;;;11.23;7.93;;;;;;;;;;10396933;28;20036;-73
2022/05/31 15:23:01;;;;;;;12.77;9.63;;;;;;;;;;10399780;28;19952;-73
2022/05/31 15:28:01;;;;;;;18.27;9.50;;;;;;;;;;10396216;28;20041;-72
2022/05/31 15:33:02;;;;;;;11.25;8.13;;;;;;;;;;10391088;28;20044;-73
2022/05/31 15:38:10;;;;;;;14.32;8.68;;;;;;;;;;10397017;28;20026;-73
2022/05/31 15:43:10;;;;;;;16.92;9.90;;;;;;;;;;10390673;28;20108;-71
2022/05/31 15:48:11;;;;;;;23.67;12.45;;;;;;;;;;10393092;28;20134;-70
2022/05/31 15:53:12;;;;;;;15.20;10.52;;;;;;;;;;10391543;28;20030;-73
2022/05/31 15:58:13;;;;;;;15.85;10.95;;;;;;;;;;10383739;28;20017;-73
2022/05/31 16:03:13;;;;;;;13.25;8.00;;;;;;;;;;10366508;28;20030;-69
2022/05/31 16:08:13;;;;;;;15.57;6.70;;;;;;;;;;10365093;28;20028;-74
2022/05/31 16:13:14;;;;;;;14.50;6.47;;;;;;;;;;10365676;28;20043;-71
2022/05/31 16:18:14;;;;;;;13.57;6.10;;;;;;;;;;10379145;28;20738;-74
2022/05/31 16:23:17;;;;;;;14.63;7.13;;;;;;;;;;10401922;28;20171;-70
2022/05/31 16:28:18;;;;;;;11.95;6.03;;;;;;;;;;10398651;28;20031;-70
2022/05/31 16:33:19;;;;;;;16.63;7.47;;;;;;;;;;10377721;28;20509;-73
2022/05/31 16:43:39;;;;;;;7.90;5.03;;;;;;;;;;10393244;28;20045;-70
2022/05/31 16:48:42;;;;;;;8.80;5.85;;;;;;;;;;10391486;28;20039;-74
2022/05/31 16:53:42;;;;;;;9.35;5.88;;;;;;;;;;10384947;28;20032;-70
2022/05/31 16:58:43;;;;;;;9.02;5.93;;;;;;;;;;10392274;28;20032;-70
2022/05/31 17:03:43;;;;;;;14.90;7.95;;;;;;;;;;10384524;28;20029;-73
2022/05/31 17:19:22;;;;;;;11.95;7.13;;;;;;;;;;10384052;28;20038;-70
2022/05/31 17:24:22;;;;;;;14.88;7.32;;;;;;;;;;10368078;28;20407;-70
2022/05/31 17:29:24;;;;;;;12.18;6.88;;;;;;;;;;10377112;28;20484;-75
2022/05/31 17:34:24;;;;;;;12.95;6.95;;;;;;;;;;10362382;28;20028;-70
2022/05/31 17:39:25;;;;;;;12.35;6.63;;;;;;;;;;10361512;28;20508;-71
2022/05/31 17:44:27;;;;;;;12.80;6.05;;;;;;;;;;10372037;28;20072;-72
2022/05/31 17:49:28;;;;;;;10.15;6.28;;;;;;;;;;10368642;28;20496;-72
2022/05/31 17:54:32;;;;;;;13.05;7.30;;;;;;;;;;10379648;28;20025;-70
2022/05/31 17:59:35;;;;;;;13.43;6.10;;;;;;;;;;10389101;28;20033;-74
2022/05/31 18:04:35;;;;;;;12.18;6.68;;;;;;;;;;10393996;28;20053;-71
2022/05/31 18:09:39;;;;;;;9.65;5.65;;;;;;;;;;10381440;28;20187;-69
2022/05/31 18:14:39;;;;;;;11.30;6.80;;;;;;;;;;10388829;28;20052;-72
2022/05/31 18:19:40;;;;;;;7.95;5.85;;;;;;;;;;10387549;28;20515;-73
2022/05/31 18:24:42;;;;;;;12.05;6.40;;;;;;;;;;10393030;28;20103;-70
2022/05/31 18:29:44;;;;;;;11.38;5.93;;;;;;;;;;10383814;28;20029;-74
2022/05/31 18:34:46;;;;;;;11.20;6.60;;;;;;;;;;10383913;28;20503;-71
2022/05/31 18:44:48;;;;;;;9.65;7.25;;;;;;;;;;10399159;28;20245;-75
2022/05/31 18:49:49;;;;;;;11.05;6.55;;;;;;;;;;10391573;28;20029;-71
2022/05/31 18:54:49;;;;;;;10.10;6.25;;;;;;;;;;10396963;28;20029;-71
2022/05/31 18:59:50;;;;;;;17.90;7.27;;;;;;;;;;10381066;28;20416;-73
2022/05/31 19:04:56;;;;;;;8.00;5.40;;;;;;;;;;10389446;28;20021;-74
2022/05/31 19:09:56;;;;;;;8.35;5.63;;;;;;;;;;10445348;28;20017;-73
2022/05/31 19:14:58;;;;;;;8.07;4.15;;;;;;;;;;10446981;28;20105;-74
2022/05/31 19:19:59;;;;;;;4.70;3.50;;;;;;;;;;10445837;28;20080;-73
2022/05/31 19:25:00;;;;;;;10.25;4.28;;;;;;;;;;10435431;28;20095;-71
2022/05/31 19:30:00;;;;;;;10.27;4.63;;;;;;;;;;10429606;28;20390;-71
2022/05/31 19:35:00;;;;;;;13.80;5.03;;;;;;;;;;10442534;28;20045;-70
2022/05/31 19:40:01;;;;;;;7.97;4.67;;;;;;;;;;10445452;28;20056;-71
2022/05/31 19:45:02;;;;;;;10.13;5.18;;;;;;;;;;10443826;28;20048;-70
2022/05/31 19:50:04;;;;;;;11.93;5.63;;;;;;;;;;10443532;28;20020;-71
2022/05/31 19:55:07;;;;;;;12.60;7.13;;;;;;;;;;10445353;28;20024;-71
2022/05/31 20:00:16;;;;;;;12.30;8.27;;;;;;;;;;10444840;28;20351;-71
2022/05/31 20:05:16;;;;;;;;;;;;;;;;;;10445377;28;20044;-72
2022/05/31 20:10:18;;;;;;;12.77;8.13;;;;;;;;;;10441135;28;19996;-72
2022/05/31 20:15:39;;;;;;;12.95;7.63;;;;;;;;;;10446518;28;20043;-74
2022/05/31 20:20:49;;;;;;;18.33;7.80;;;;;;;;;;10449595;28;20041;-73
2022/05/31 20:25:50;;;;;;;15.73;8.50;;;;;;;;;;10445413;28;20453;-71
2022/05/31 20:30:50;;;;;;;12.85;8.02;;;;;;;;;;10449889;28;20090;-71
2022/05/31 20:35:52;;;;;;;15.80;8.67;;;;;;;;;;10444249;28;20028;-71
2022/05/31 20:40:53;;;;;;;19.90;9.20;;;;;;;;;;10444007;28;20021;-74
2022/05/31 20:45:55;;;;;;;16.00;9.23;;;;;;;;;;10440844;28;20032;-73
2022/05/31 20:50:55;;;;;;;15.45;9.45;;;;;;;;;;10425023;28;20033;-69
2022/05/31 20:55:55;;;;;;;17.37;9.50;;;;;;;;;;10402597;28;20615;-75
2022/05/31 21:00:56;;;;;;;17.98;10.77;;;;;;;;;;10402137;28;20272;-74
2022/05/31 21:05:56;;;;;;;21.30;10.55;;;;;;;;;;10403964;28;20075;-75
2022/05/31 21:10:57;;;;;;;18.50;11.45;;;;;;;;;;10401833;28;20113;-71
2022/05/31 21:15:57;;;;;;;18.33;9.57;;;;;;;;;;10401653;28;20133;-73
2022/05/31 21:21:02;;;;;;;15.13;7.80;;;;;;;;;;10423922;28;20094;-74
2022/05/31 21:26:04;;;;;;;16.58;7.95;;;;;;;;;;10413879;28;20025;-72
2022/05/31 21:31:05;;;;;;;15.05;7.75;;;;;;;;;;10403131;28;20137;-71
2022/05/31 21:36:06;;;;;;;17.40;6.75;;;;;;;;;;10400616;28;20565;-75
2022/05/31 21:41:09;;;;;;;10.90;6.45;;;;;;;;;;10384171;28;20631;-74
2022/05/31 21:46:10;;;;;;;11.13;6.13;;;;;;;;;;10384989;28;20022;-72
2022/05/31 21:51:10;;;;;;;18.98;7.68;;;;;;;;;;10400597;28;20029;-73
2022/05/31 21:56:13;;;;;;;15.95;6.85;;;;;;;;;;10542836;22;20060;-72
2022/05/31 22:01:14;;;;;;;10.40;6.22;;;;;;;;;;10442282;28;20191;-73
2022/05/31 22:06:16;;;;;;;8.45;5.80;;;;;;;;;;10442528;28;20025;-72
2022/05/31 22:11:20;;;;;;;18.13;6.97;;;;;;;;;;10449076;28;20028;-74
2022/05/31 22:16:21;;;;;;;18.10;7.60;;;;;;;;;;10447761;28;20031;-75
2022/05/31 22:21:23;;;;;;;11.43;7.50;;;;;;;;;;10450408;28;20548;-71
2022/05/31 22:26:25;;;;;;;18.50;7.30;;;;;;;;;;10451414;28;20017;-72
2022/05/31 22:31:26;;;;;;;16.02;8.43;;;;;;;;;;10449839;28;20074;-71
2022/05/31 22:36:27;;;;;;;15.02;8.23;;;;;;;;;;10451692;28;20035;-70
2022/05/31 22:41:29;;;;;;;11.25;7.80;;;;;;;;;;10449757;28;20032;-73
2022/05/31 22:46:35;;;;;;;11.98;5.57;;;;;;;;;;10432139;28;20402;-71
2022/05/31 22:51:35;;;;;;;8.13;5.68;;;;;;;;;;10449269;28;20392;-76
2022/05/31 22:56:37;;;;;;;7.53;4.90;;;;;;;;;;10448716;28;20045;-70
2022/05/31 23:01:37;;;;;;;11.35;5.75;;;;;;;;;;10445960;28;20503;-77
2022/05/31 23:06:38;;;;;;;10.45;5.40;;;;;;;;;;10448383;28;20017;-75
2022/05/31 23:11:38;;;;;;;11.18;5.38;;;;;;;;;;10448502;28;20491;-70
2022/05/31 23:16:38;;;;;;;8.18;4.95;;;;;;;;;;10433774;28;20035;-73
2022/05/31 23:21:43;;;;;;;7.73;4.57;;;;;;;;;;10447028;28;20071;-72
2022/05/31 23:26:48;;;;;;;7.40;4.78;;;;;;;;;;10448142;28;20252;-72
2022/05/31 23:31:53;;;;;;;13.82;4.70;;;;;;;;;;10447886;28;20036;-75
2022/05/31 23:36:53;;;;;;;10.45;5.20;;;;;;;;;;10447128;28;20024;-73
2022/05/31 23:41:57;;;;;;;10.77;4.77;;;;;;;;;;10434522;28;20025;-76
2022/05/31 23:46:57;;;;;;;9.65;4.97;;;;;;;;;;10447123;28;20017;-74
2022/05/31 23:51:58;;;;;;;8.20;5.32;;;;;;;;;;10447002;28;20037;-72
2022/05/31 23:56:59;;;;;;;11.23;4.93;;;;;;;;;;10447297;28;20049;-77
